Time;durP1;ratioP1;P1;durP2;ratioP2;P2;SDS_P1;SDS_P2;PMS_P1;PMS_P2;Temp;Humidity;BMP_temperature;BMP_pressure;BME280_temperature;BME280_humidity;BME280_pressure;Samples;Min_cycle;Max_cycle;Signal;HPM_P1;HPM_P2
2021/10/08 00:02:03;;;;;;;34.22;20.05;;;11.80;99.90;;;;;;5113628;28;20472;-77
2021/10/08 00:04:28;;;;;;;27.67;18.33;;;11.90;99.90;;;;;;5113947;28;20057;-77
2021/10/08 00:06:54;;;;;;;28.15;18.88;;;11.80;99.90;;;;;;5113719;28;20436;-77
2021/10/08 00:09:21;;;;;;;26.00;17.95;;;11.80;99.90;;;;;;5113788;28;20103;-77
2021/10/08 00:11:47;;;;;;;31.55;16.17;;;11.80;99.90;;;;;;5111307;28;20023;-76
2021/10/08 00:14:12;;;;;;;22.98;15.50;;;11.80;99.90;;;;;;5094915;28;20534;-77
2021/10/08 00:16:38;;;;;;;26.17;16.17;;;11.70;99.90;;;;;;5114108;28;20027;-77
2021/10/08 00:19:04;;;;;;;27.98;17.67;;;11.80;99.90;;;;;;5113796;28;20383;-76
2021/10/08 00:21:29;;;;;;;26.13;16.67;;;11.80;99.90;;;;;;5113985;28;20031;-77
2021/10/08 00:23:55;;;;;;;29.52;18.45;;;11.80;99.90;;;;;;5094539;28;20103;-77
2021/10/08 00:26:21;;;;;;;30.85;17.60;;;11.70;99.90;;;;;;5112954;28;20537;-77
2021/10/08 00:28:46;;;;;;;27.08;17.05;;;11.60;99.90;;;;;;5113210;28;20030;-77
2021/10/08 00:31:12;;;;;;;26.92;16.25;;;11.60;99.90;;;;;;5115268;28;20038;-77
2021/10/08 00:33:39;;;;;;;25.27;17.20;;;11.60;99.90;;;;;;5114863;28;20519;-77
2021/10/08 00:36:04;;;;;;;35.63;18.80;;;11.60;99.90;;;;;;5115303;28;20487;-77
2021/10/08 00:38:30;;;;;;;58.55;22.25;;;11.60;99.90;;;;;;5113955;28;20036;-77
2021/10/08 00:40:56;;;;;;;29.58;17.70;;;11.60;99.90;;;;;;5114182;28;20027;-77
2021/10/08 00:43:22;;;;;;;50.70;20.00;;;11.60;99.90;;;;;;5104999;28;20024;-77
2021/10/08 00:45:49;;;;;;;55.03;21.92;;;11.60;99.90;;;;;;5095103;28;20027;-77
2021/10/08 00:48:16;;;;;;;47.38;19.13;;;11.60;99.90;;;;;;5114652;28;20027;-77
2021/10/08 00:50:48;;;;;;;53.22;20.30;;;11.60;99.90;;;;;;5112977;28;20031;-77
2021/10/08 00:53:16;;;;;;;35.40;19.83;;;11.50;99.90;;;;;;5114548;28;20040;-77
2021/10/08 00:55:45;;;;;;;33.95;19.98;;;11.50;99.90;;;;;;5114017;28;20112;-77
2021/10/08 00:58:12;;;;;;;29.00;18.02;;;11.60;99.90;;;;;;5114268;28;20224;-77
2021/10/08 01:00:46;;;;;;;26.33;17.92;;;11.50;99.90;;;;;;5113490;28;20551;-77
2021/10/08 01:03:12;;;;;;;24.25;17.88;;;11.40;99.90;;;;;;5106367;28;20552;-77
2021/10/08 01:05:39;;;;;;;23.30;17.42;;;11.30;99.90;;;;;;5114276;28;20032;-77
2021/10/08 01:08:07;;;;;;;24.60;18.15;;;11.40;99.90;;;;;;5118714;27;20429;-78
2021/10/08 01:10:34;;;;;;;24.00;17.13;;;11.40;99.90;;;;;;5112911;28;20070;-77
2021/10/08 01:13:01;;;;;;;32.17;16.15;;;11.30;99.90;;;;;;5114100;28;20057;-78
2021/10/08 01:15:27;;;;;;;33.83;17.02;;;11.30;99.90;;;;;;5110942;28;20387;-77
2021/10/08 01:17:53;;;;;;;23.00;15.63;;;11.20;99.90;;;;;;5115313;27;20080;-78
2021/10/08 01:20:21;;;;;;;20.45;16.45;;;11.20;99.90;;;;;;5113574;28;20102;-78
2021/10/08 01:22:46;;;;;;;37.60;19.98;;;11.10;99.90;;;;;;5112568;28;20045;-79
2021/10/08 01:25:12;;;;;;;21.80;17.02;;;11.20;99.90;;;;;;5113524;28;20483;-78
2021/10/08 01:27:39;;;;;;;20.98;16.25;;;11.10;99.90;;;;;;5113809;28;20487;-78
2021/10/08 01:30:07;;;;;;;28.48;18.02;;;11.10;99.90;;;;;;5113620;28;20028;-78
2021/10/08 01:32:35;;;;;;;73.38;22.35;;;11.20;99.90;;;;;;5113554;28;20328;-78
2021/10/08 01:35:02;;;;;;;42.83;18.90;;;11.10;99.90;;;;;;5105198;28;20024;-78
2021/10/08 01:37:28;;;;;;;22.90;17.13;;;11.10;99.90;;;;;;5107593;28;20098;-78
2021/10/08 01:39:54;;;;;;;24.42;17.35;;;11.10;99.90;;;;;;5112661;28;20031;-79
2021/10/08 01:42:20;;;;;;;42.75;20.02;;;11.10;99.90;;;;;;5113474;28;20028;-79
2021/10/08 01:44:46;;;;;;;29.67;16.80;;;11.10;99.90;;;;;;5093800;28;20023;-78
2021/10/08 01:47:12;;;;;;;47.33;18.25;;;11.10;99.90;;;;;;5113549;28;20027;-78
2021/10/08 01:49:38;;;;;;;26.67;16.02;;;11.00;99.90;;;;;;5113528;28;20032;-78
2021/10/08 01:52:05;;;;;;;43.60;16.25;;;11.00;99.90;;;;;;5112652;28;20035;-78
2021/10/08 01:54:31;;;;;;;60.40;18.90;;;11.00;99.90;;;;;;5112077;28;20038;-78
2021/10/08 01:56:58;;;;;;;27.45;17.05;;;11.10;99.90;;;;;;5111658;28;20023;-78
2021/10/08 01:59:24;;;;;;;39.28;16.73;;;10.90;99.90;;;;;;5112775;28;20043;-78
2021/10/08 02:01:49;;;;;;;35.08;15.98;;;10.90;99.90;;;;;;5113167;28;20096;-78
2021/10/08 02:04:15;;;;;;;30.08;17.08;;;10.90;99.90;;;;;;5113742;28;20028;-77
2021/10/08 02:06:41;;;;;;;20.42;15.63;;;10.90;99.90;;;;;;5114639;28;20027;-78
2021/10/08 02:09:10;;;;;;;25.23;16.48;;;10.90;99.90;;;;;;5094901;28;20486;-78
2021/10/08 02:11:36;;;;;;;29.77;17.23;;;10.90;99.90;;;;;;5111752;28;20020;-78
2021/10/08 02:14:02;;;;;;;38.78;16.95;;;10.90;99.90;;;;;;5126584;27;20031;-78
2021/10/08 02:16:28;;;;;;;21.63;15.55;;;10.90;99.90;;;;;;5133467;27;20041;-77
2021/10/08 02:18:55;;;;;;;26.90;16.75;;;10.90;99.90;;;;;;5132859;27;20027;-77
2021/10/08 02:21:22;;;;;;;78.75;21.13;;;10.90;99.90;;;;;;5133664;27;20015;-77
2021/10/08 02:23:48;;;;;;;66.45;20.95;;;10.80;99.90;;;;;;5132342;28;20413;-77
2021/10/08 02:26:16;;;;;;;73.88;19.13;;;10.70;99.90;;;;;;5112885;28;20022;-77
2021/10/08 02:28:42;;;;;;;39.50;16.83;;;10.60;99.90;;;;;;5094309;28;20030;-78
2021/10/08 02:31:08;;;;;;;25.95;14.80;;;10.60;99.90;;;;;;5113425;28;20028;-77
2021/10/08 02:33:34;;;;;;;30.27;16.35;;;10.70;99.90;;;;;;5112979;28;20078;-77
2021/10/08 02:36:02;;;;;;;28.30;15.55;;;10.70;99.90;;;;;;5113059;28;20050;-77
2021/10/08 02:38:28;;;;;;;29.13;15.55;;;10.70;99.90;;;;;;5112438;28;20020;-77
2021/10/08 02:40:54;;;;;;;21.50;16.25;;;10.80;99.90;;;;;;5112776;28;20020;-77
2021/10/08 02:43:20;;;;;;;22.92;17.30;;;10.70;99.90;;;;;;5111328;28;20023;-76
2021/10/08 02:45:46;;;;;;;27.38;17.13;;;10.70;99.90;;;;;;5111474;28;20030;-77
2021/10/08 02:48:12;;;;;;;16.55;14.32;;;10.70;99.90;;;;;;5112390;28;20020;-77
2021/10/08 02:50:38;;;;;;;25.35;16.30;;;10.70;99.90;;;;;;5112359;28;20047;-77
2021/10/08 02:53:04;;;;;;;21.35;16.50;;;10.70;99.90;;;;;;5112324;28;20035;-77
2021/10/08 02:55:30;;;;;;;23.60;16.48;;;10.70;99.90;;;;;;5112715;28;20016;-77
2021/10/08 02:57:56;;;;;;;38.70;17.77;;;10.70;99.90;;;;;;5112813;28;20024;-77
2021/10/08 03:00:22;;;;;;;45.60;18.23;;;10.70;99.90;;;;;;5112891;28;20028;-77
2021/10/08 03:02:48;;;;;;;43.17;16.52;;;10.70;99.90;;;;;;5112585;28;20027;-77
2021/10/08 03:05:13;;;;;;;19.98;14.98;;;10.70;99.90;;;;;;5113191;28;20047;-77
2021/10/08 03:07:40;;;;;;;27.45;15.73;;;10.70;99.90;;;;;;5112675;28;20068;-77
2021/10/08 03:10:09;;;;;;;25.42;15.60;;;10.70;99.90;;;;;;5113180;28;20024;-77
2021/10/08 03:12:35;;;;;;;22.08;16.67;;;10.70;99.90;;;;;;5094071;28;20074;-77
2021/10/08 03:15:03;;;;;;;23.85;16.40;;;10.70;99.90;;;;;;5112874;28;20529;-77
2021/10/08 03:17:29;;;;;;;20.67;16.15;;;10.70;99.90;;;;;;5112622;28;20081;-77
2021/10/08 03:19:56;;;;;;;60.85;18.67;;;10.70;99.90;;;;;;5111406;28;20483;-77
2021/10/08 03:22:22;;;;;;;43.10;19.42;;;10.70;99.90;;;;;;5111763;28;20024;-77
2021/10/08 03:24:48;;;;;;;51.67;18.00;;;10.70;99.90;;;;;;5112919;28;20027;-77
2021/10/08 03:27:15;;;;;;;46.13;17.60;;;10.80;99.90;;;;;;5112299;28;20023;-77
2021/10/08 03:29:41;;;;;;;59.28;16.95;;;10.70;99.90;;;;;;5112256;28;20110;-77
2021/10/08 03:32:07;;;;;;;47.97;16.25;;;10.70;99.90;;;;;;5112666;28;20118;-77
2021/10/08 03:34:34;;;;;;;55.25;16.20;;;10.70;99.90;;;;;;5095772;28;20436;-77
2021/10/08 03:37:03;;;;;;;53.75;17.33;;;10.70;99.90;;;;;;5115682;28;20371;-77
2021/10/08 03:39:32;;;;;;;40.55;16.77;;;10.70;99.90;;;;;;5116480;28;20118;-77
2021/10/08 03:41:58;;;;;;;34.25;17.55;;;10.60;99.90;;;;;;5113715;28;20016;-78
2021/10/08 03:44:28;;;;;;;39.10;17.05;;;10.60;99.90;;;;;;5115105;28;20046;-77
2021/10/08 03:46:56;;;;;;;31.15;15.52;;;10.60;99.90;;;;;;5115794;28;20069;-78
2021/10/08 03:49:23;;;;;;;34.03;16.15;;;10.60;99.90;;;;;;5115084;28;20024;-77
2021/10/08 03:51:50;;;;;;;75.93;18.83;;;10.70;99.90;;;;;;5115696;28;20084;-77
2021/10/08 03:54:17;;;;;;;37.25;16.60;;;10.60;99.90;;;;;;5115740;28;20023;-77
2021/10/08 03:56:43;;;;;;;26.85;14.75;;;10.70;99.90;;;;;;5115768;28;20055;-77
2021/10/08 03:59:09;;;;;;;31.08;17.77;;;10.70;99.90;;;;;;5115410;28;20085;-77
2021/10/08 04:01:35;;;;;;;26.48;16.50;;;10.70;99.90;;;;;;5115714;28;20368;-77
2021/10/08 04:04:04;;;;;;;23.38;17.52;;;10.60;99.90;;;;;;5115590;28;20035;-77
2021/10/08 04:06:32;;;;;;;53.88;20.20;;;10.60;99.90;;;;;;5115312;28;20058;-77
2021/10/08 04:08:58;;;;;;;40.20;17.92;;;10.60;99.90;;;;;;5114607;28;20038;-77
2021/10/08 04:11:24;;;;;;;45.60;17.60;;;10.60;99.90;;;;;;5114906;28;20436;-77
2021/10/08 04:13:50;;;;;;;35.08;16.33;;;10.60;99.90;;;;;;5115424;28;20024;-77
2021/10/08 04:16:15;;;;;;;72.25;18.08;;;10.60;99.90;;;;;;5115605;28;20046;-77
2021/10/08 04:18:41;;;;;;;88.50;19.77;;;10.60;99.90;;;;;;5116144;28;20062;-76
2021/10/08 04:21:07;;;;;;;52.30;17.73;;;10.60;99.90;;;;;;5115624;28;20371;-77
2021/10/08 04:23:33;;;;;;;40.33;17.33;;;10.60;99.90;;;;;;5115225;28;20024;-78
2021/10/08 04:25:58;;;;;;;43.10;16.83;;;10.60;99.90;;;;;;5115098;28;20082;-77
2021/10/08 04:28:24;;;;;;;47.85;16.60;;;10.60;99.90;;;;;;5115252;28;20022;-77
2021/10/08 04:30:50;;;;;;;68.72;18.77;;;10.60;99.90;;;;;;5115304;28;20030;-77
2021/10/08 04:33:21;;;;;;;63.95;19.33;;;10.50;99.90;;;;;;5114386;28;20039;-77
2021/10/08 04:35:48;;;;;;;77.60;21.17;;;10.50;99.90;;;;;;5115470;28;20019;-77
2021/10/08 04:38:15;;;;;;;59.58;19.42;;;10.50;99.90;;;;;;5115082;28;20027;-78
2021/10/08 04:40:41;;;;;;;69.00;20.17;;;10.50;99.90;;;;;;5114790;28;20024;-77
2021/10/08 04:43:07;;;;;;;52.63;18.35;;;10.60;99.90;;;;;;5114686;28;20019;-77
2021/10/08 04:45:33;;;;;;;49.25;17.95;;;10.60;99.90;;;;;;5113433;28;20107;-77
2021/10/08 04:47:59;;;;;;;28.77;17.55;;;10.50;99.90;;;;;;5115161;28;20110;-77
2021/10/08 04:50:26;;;;;;;37.85;17.73;;;10.50;99.90;;;;;;5114781;28;20518;-77
2021/10/08 04:52:51;;;;;;;26.50;15.45;;;10.50;99.90;;;;;;5114249;28;20475;-77
2021/10/08 04:55:17;;;;;;;40.95;16.00;;;10.50;99.90;;;;;;5114969;28;20020;-78
2021/10/08 04:57:43;;;;;;;53.03;18.08;;;10.40;99.90;;;;;;5114805;28;20081;-78
2021/10/08 05:00:09;;;;;;;46.65;16.70;;;10.50;99.90;;;;;;5113713;28;20153;-77
2021/10/08 05:02:36;;;;;;;31.05;15.73;;;10.40;99.90;;;;;;5096105;28;20114;-77
2021/10/08 05:05:01;;;;;;;38.25;14.70;;;10.40;99.90;;;;;;5114597;28;20090;-77
2021/10/08 05:07:27;;;;;;;27.60;14.98;;;10.30;99.90;;;;;;5113839;28;20485;-77
2021/10/08 05:09:53;;;;;;;30.17;15.23;;;10.30;99.90;;;;;;5114429;28;20032;-77
2021/10/08 05:12:18;;;;;;;24.65;15.27;;;10.30;99.90;;;;;;5113984;28;20035;-77
2021/10/08 05:14:44;;;;;;;23.77;16.10;;;10.30;99.90;;;;;;5114327;28;20023;-77
2021/10/08 05:17:10;;;;;;;26.55;14.45;;;10.30;99.90;;;;;;5114576;28;20027;-77
2021/10/08 05:19:35;;;;;;;36.17;14.88;;;10.30;99.90;;;;;;5114081;28;20074;-77
2021/10/08 05:22:01;;;;;;;28.35;15.48;;;10.30;99.90;;;;;;5095480;28;20034;-77
2021/10/08 05:24:27;;;;;;;23.42;15.07;;;10.20;99.90;;;;;;5114203;28;20055;-77
2021/10/08 05:26:53;;;;;;;29.38;15.30;;;10.30;99.90;;;;;;5114167;28;20016;-77
2021/10/08 05:29:19;;;;;;;19.77;14.85;;;10.20;99.90;;;;;;5113852;28;20032;-77
2021/10/08 05:31:44;;;;;;;24.38;15.15;;;10.30;99.90;;;;;;5114031;28;20027;-77
2021/10/08 05:34:12;;;;;;;21.25;14.23;;;10.20;99.90;;;;;;5114158;28;20042;-77
2021/10/08 05:36:38;;;;;;;33.85;16.75;;;10.30;99.90;;;;;;5113908;28;20027;-77
2021/10/08 05:39:04;;;;;;;24.33;13.65;;;10.30;99.90;;;;;;5113577;28;20099;-77
2021/10/08 05:41:30;;;;;;;46.88;17.00;;;10.20;99.90;;;;;;5112110;28;20348;-77
2021/10/08 05:43:56;;;;;;;25.35;12.85;;;10.20;99.90;;;;;;5113325;28;20031;-77
2021/10/08 05:46:21;;;;;;;69.03;16.83;;;10.20;99.90;;;;;;5113049;28;20024;-77
2021/10/08 05:48:47;;;;;;;40.92;13.88;;;10.20;99.90;;;;;;5113778;28;20023;-77
2021/10/08 05:51:13;;;;;;;48.30;15.43;;;10.20;99.90;;;;;;5132880;27;20076;-77
2021/10/08 05:53:38;;;;;;;38.63;14.60;;;10.10;99.90;;;;;;5134521;27;20027;-77
2021/10/08 05:56:04;;;;;;;23.67;13.70;;;10.10;99.90;;;;;;5125996;27;20059;-77
2021/10/08 05:58:30;;;;;;;22.75;14.25;;;10.00;99.90;;;;;;5109690;28;20490;-77
2021/10/08 06:00:56;;;;;;;26.52;14.95;;;10.10;99.90;;;;;;5113178;28;20020;-77
2021/10/08 06:03:21;;;;;;;30.77;13.98;;;10.10;99.90;;;;;;5112661;28;20024;-77
2021/10/08 06:05:47;;;;;;;51.05;15.20;;;10.10;99.90;;;;;;5113398;28;20468;-77
2021/10/08 06:08:13;;;;;;;30.58;14.40;;;10.10;99.90;;;;;;5113640;28;20486;-77
2021/10/08 06:10:39;;;;;;;63.85;15.95;;;10.10;99.90;;;;;;5113477;28;20027;-77
2021/10/08 06:13:05;;;;;;;38.28;15.38;;;10.00;99.90;;;;;;5113283;28;20398;-77
2021/10/08 06:15:31;;;;;;;49.17;15.75;;;10.00;99.90;;;;;;5113335;28;20174;-78
2021/10/08 06:17:57;;;;;;;20.88;13.65;;;10.10;99.90;;;;;;5106198;28;20027;-77
2021/10/08 06:20:25;;;;;;;159.77;22.25;;;10.10;99.90;;;;;;5093375;28;20387;-77
2021/10/08 06:22:52;;;;;;;247.48;25.33;;;10.10;99.90;;;;;;5112563;28;20024;-77
2021/10/08 06:25:19;;;;;;;37.45;14.65;;;10.10;99.90;;;;;;5112981;28;20016;-74
2021/10/08 06:27:51;;;;;;;21.27;13.80;;;10.00;99.90;;;;;;5113441;28;20030;-78
2021/10/08 06:30:17;;;;;;;41.85;15.23;;;10.00;99.90;;;;;;5112796;28;20102;-77
2021/10/08 06:32:43;;;;;;;31.23;14.75;;;10.00;99.90;;;;;;5124826;28;20071;-78
2021/10/08 06:35:09;;;;;;;25.40;14.68;;;10.00;99.90;;;;;;5112702;28;20043;-78
2021/10/08 06:37:35;;;;;;;30.25;15.38;;;10.00;99.90;;;;;;5109776;28;20027;-77
2021/10/08 06:40:00;;;;;;;45.83;14.95;;;10.00;99.90;;;;;;5112826;28;20024;-78
2021/10/08 06:42:26;;;;;;;26.85;14.02;;;10.00;99.90;;;;;;5118330;28;20037;-77
2021/10/08 06:44:56;;;;;;;35.42;14.43;;;10.00;99.90;;;;;;5116541;28;20459;-77
2021/10/08 06:47:22;;;;;;;47.70;17.23;;;10.00;99.90;;;;;;5109290;28;20093;-77
2021/10/08 06:49:48;;;;;;;28.58;15.55;;;10.10;99.90;;;;;;5111590;28;20420;-78
2021/10/08 06:52:14;;;;;;;23.30;14.50;;;10.00;99.90;;;;;;5112073;28;20429;-77
2021/10/08 06:54:40;;;;;;;22.02;15.18;;;10.00;99.90;;;;;;5111046;28;20047;-77
2021/10/08 06:57:06;;;;;;;42.40;17.05;;;10.10;99.90;;;;;;5112298;28;20020;-77
2021/10/08 06:59:32;;;;;;;32.10;15.07;;;10.10;99.90;;;;;;5111629;28;20015;-77
2021/10/08 07:01:57;;;;;;;33.60;16.25;;;10.10;99.90;;;;;;5111592;28;20028;-77
2021/10/08 07:04:24;;;;;;;42.67;14.38;;;10.10;99.90;;;;;;5107623;28;20024;-78
2021/10/08 07:06:49;;;;;;;100.68;17.90;;;10.10;99.90;;;;;;5111805;28;20020;-77
2021/10/08 07:09:15;;;;;;;54.80;15.25;;;10.20;99.90;;;;;;5114254;28;20084;-77
2021/10/08 07:11:41;;;;;;;35.58;15.98;;;10.10;99.90;;;;;;5116044;28;20035;-78
2021/10/08 07:14:07;;;;;;;30.10;15.02;;;10.00;99.90;;;;;;5112776;28;20115;-77
2021/10/08 07:16:33;;;;;;;38.05;15.15;;;10.00;99.90;;;;;;5116635;28;20080;-77
2021/10/08 07:19:07;;;;;;;61.35;15.27;;;10.00;99.90;;;;;;5114902;28;20023;-77
2021/10/08 07:21:33;;;;;;;33.67;14.80;;;10.10;99.90;;;;;;5116476;28;20026;-77
2021/10/08 07:23:59;;;;;;;31.77;15.23;;;10.10;99.90;;;;;;5116177;28;20023;-77
2021/10/08 07:26:25;;;;;;;26.35;13.90;;;10.20;99.90;;;;;;5112983;28;20019;-77
2021/10/08 07:28:52;;;;;;;23.30;13.35;;;10.20;99.90;;;;;;5114870;28;20023;-78
2021/10/08 07:31:18;;;;;;;24.17;13.90;;;10.20;99.90;;;;;;5116127;28;20459;-77
2021/10/08 07:33:43;;;;;;;33.78;16.50;;;10.30;99.90;;;;;;5115602;28;20038;-77
2021/10/08 07:36:10;;;;;;;31.42;16.40;;;10.30;99.90;;;;;;5115818;28;20073;-77
2021/10/08 07:38:38;;;;;;;25.88;15.70;;;10.40;99.90;;;;;;5115698;28;20443;-77
2021/10/08 07:41:04;;;;;;;30.88;16.38;;;10.30;99.90;;;;;;5114790;28;20102;-76
2021/10/08 07:43:30;;;;;;;37.15;15.80;;;10.40;99.90;;;;;;5111177;28;20473;-75
2021/10/08 07:45:56;;;;;;;29.52;16.02;;;10.30;99.90;;;;;;5115749;28;20023;-75
2021/10/08 07:48:21;;;;;;;184.93;26.50;;;10.40;99.90;;;;;;5115029;28;20349;-76
2021/10/08 07:50:47;;;;;;;29.35;15.95;;;10.30;99.90;;;;;;5097263;28;20027;-75
2021/10/08 07:53:13;;;;;;;70.32;18.95;;;10.30;99.90;;;;;;5114870;28;20028;-77
2021/10/08 07:55:39;;;;;;;35.80;15.40;;;10.30;99.90;;;;;;5114670;28;20077;-77
2021/10/08 07:58:04;;;;;;;21.95;14.38;;;10.30;99.90;;;;;;5114421;28;20055;-78
2021/10/08 08:00:30;;;;;;;41.38;13.50;;;10.40;99.90;;;;;;5111198;28;20536;-77
2021/10/08 08:02:55;;;;;;;31.25;13.75;;;10.40;99.90;;;;;;5114783;28;20039;-77
2021/10/08 08:05:22;;;;;;;25.27;13.48;;;10.50;99.90;;;;;;5114176;28;20042;-77
2021/10/08 08:07:50;;;;;;;56.20;15.52;;;10.60;99.90;;;;;;5114428;28;20033;-77
2021/10/08 08:10:16;;;;;;;42.92;14.05;;;10.60;99.90;;;;;;5115169;28;20012;-77
2021/10/08 08:12:42;;;;;;;35.53;14.77;;;10.50;99.90;;;;;;5110716;28;20032;-77
2021/10/08 08:15:09;;;;;;;27.92;14.15;;;10.60;99.90;;;;;;5114415;28;20012;-75
2021/10/08 08:17:35;;;;;;;34.92;14.23;;;10.70;99.90;;;;;;5115281;28;20020;-76
2021/10/08 08:20:03;;;;;;;32.72;15.23;;;10.70;99.90;;;;;;5113081;28;20016;-76
2021/10/08 08:22:29;;;;;;;39.03;15.85;;;10.80;99.90;;;;;;5114592;28;20501;-77
2021/10/08 08:24:54;;;;;;;59.47;17.85;;;10.80;99.90;;;;;;5114440;28;20023;-77
2021/10/08 08:27:20;;;;;;;40.63;15.90;;;10.90;99.90;;;;;;5114832;28;20544;-77
2021/10/08 08:29:46;;;;;;;54.75;19.48;;;10.90;99.90;;;;;;5109755;28;20103;-77
2021/10/08 08:32:11;;;;;;;75.95;18.40;;;11.00;99.90;;;;;;5114019;28;20399;-82
2021/10/08 08:34:37;;;;;;;35.55;17.17;;;11.00;99.90;;;;;;5112172;28;20030;-76
2021/10/08 08:37:03;;;;;;;30.95;16.63;;;11.00;99.90;;;;;;5114424;28;20028;-77
2021/10/08 08:39:31;;;;;;;49.33;17.83;;;11.10;99.90;;;;;;5114928;28;20027;-77
2021/10/08 08:41:57;;;;;;;72.63;19.38;;;11.20;99.90;;;;;;5115206;28;20070;-78
2021/10/08 08:44:22;;;;;;;35.35;17.65;;;11.20;99.90;;;;;;5113604;28;20028;-74
2021/10/08 08:46:48;;;;;;;44.10;18.92;;;11.30;99.90;;;;;;5114174;28;20016;-77
2021/10/08 08:49:14;;;;;;;26.92;16.95;;;11.40;99.90;;;;;;5113542;28;20023;-76
2021/10/08 08:51:39;;;;;;;30.85;18.20;;;11.40;99.90;;;;;;5114254;28;20056;-77
2021/10/08 08:54:08;;;;;;;31.92;18.30;;;11.50;99.90;;;;;;5102239;28;20067;-76
2021/10/08 08:56:35;;;;;;;36.38;19.45;;;11.60;99.90;;;;;;5076283;28;20529;-76
2021/10/08 08:59:07;;;;;;;49.35;20.92;;;11.60;99.90;;;;;;5111219;28;20059;-77
2021/10/08 09:01:33;;;;;;;62.03;24.40;;;11.60;99.90;;;;;;5114955;28;20096;-77
2021/10/08 09:04:06;;;;;;;63.30;23.75;;;11.60;99.90;;;;;;5112767;28;20129;-77
2021/10/08 09:06:38;;;;;;;;;;;11.60;99.90;;;;;;5116218;28;20039;-76
2021/10/08 09:09:21;;;;;;;133.98;30.83;;;11.70;99.90;;;;;;5119074;28;20003;-77
2021/10/08 09:11:48;;;;;;;73.47;28.38;;;11.70;99.90;;;;;;5110003;28;20034;-77
2021/10/08 09:14:21;;;;;;;66.88;31.17;;;11.70;99.90;;;;;;5113783;28;20012;-77
2021/10/08 09:17:05;;;;;;;;;;;11.60;99.90;;;;;;5096533;28;20031;-76
2021/10/08 09:20:14;;;;;;;48.75;27.65;;;11.70;99.90;;;;;;5113337;28;19908;-76
2021/10/08 09:22:40;;;;;;;44.33;25.73;;;11.90;99.90;;;;;;5061333;28;20032;-76
2021/10/08 09:25:15;;;;;;;47.10;27.48;;;12.10;99.90;;;;;;5067089;28;20062;-76
2021/10/08 09:27:44;;;;;;;52.53;30.10;;;12.30;99.90;;;;;;5079354;28;20085;-76
2021/10/08 09:30:10;;;;;;;57.17;32.53;;;12.20;99.90;;;;;;5113138;28;20479;-76
2021/10/08 09:32:44;;;;;;;56.85;32.10;;;12.30;99.90;;;;;;5111589;28;20055;-77
2021/10/08 09:35:12;;;;;;;61.33;33.70;;;12.30;99.90;;;;;;5112160;28;20022;-77
2021/10/08 09:37:38;;;;;;;64.35;35.72;;;12.40;99.90;;;;;;5113193;28;20023;-77
2021/10/08 09:40:20;;;;;;;71.13;38.47;;;12.40;99.90;;;;;;5110575;28;20026;-77
2021/10/08 09:42:46;;;;;;;73.65;38.58;;;12.50;99.90;;;;;;5112108;28;20053;-77
2021/10/08 09:45:11;;;;;;;83.10;42.75;;;12.50;99.90;;;;;;5112059;28;20406;-77
2021/10/08 09:47:57;;;;;;;69.90;38.50;;;12.60;99.90;;;;;;5111436;28;20068;-76
2021/10/08 09:50:23;;;;;;;96.30;45.63;;;12.90;99.90;;;;;;5102433;28;20578;-77
2021/10/08 09:52:49;;;;;;;91.68;45.25;;;12.90;99.90;;;;;;5110633;28;20075;-77
2021/10/08 09:55:15;;;;;;;99.50;45.85;;;12.80;99.90;;;;;;5112290;28;20030;-77
2021/10/08 09:57:47;;;;;;;77.57;41.30;;;13.10;99.90;;;;;;5111771;28;20441;-78
2021/10/08 10:00:40;;;;;;;88.88;45.45;;;13.30;99.90;;;;;;5112541;28;20107;-76
2021/10/08 10:03:08;;;;;;;81.28;42.30;;;13.50;99.90;;;;;;5108551;28;20062;-77
2021/10/08 10:05:34;;;;;;;78.13;40.13;;;13.70;99.90;;;;;;5112610;28;20024;-76
2021/10/08 10:08:00;;;;;;;73.30;40.63;;;13.80;99.90;;;;;;5112734;28;20032;-77
2021/10/08 10:10:26;;;;;;;70.90;38.25;;;13.70;99.90;;;;;;5112541;28;20379;-77
2021/10/08 10:12:52;;;;;;;74.15;40.88;;;13.70;99.90;;;;;;5106934;28;20028;-78
2021/10/08 10:15:19;;;;;;;75.78;41.75;;;13.60;99.90;;;;;;5112416;28;20028;-77
2021/10/08 10:17:47;;;;;;;76.28;40.58;;;13.60;99.90;;;;;;5112681;28;20248;-77
2021/10/08 10:20:14;;;;;;;76.15;41.50;;;13.50;99.90;;;;;;5112542;28;20471;-76
2021/10/08 10:22:40;;;;;;;79.57;41.92;;;13.60;99.90;;;;;;5111686;28;20117;-77
2021/10/08 10:25:09;;;;;;;79.57;39.97;;;13.50;99.90;;;;;;5111720;28;20099;-77
2021/10/08 10:27:35;;;;;;;70.63;39.08;;;13.60;99.90;;;;;;5110741;28;20024;-78
2021/10/08 10:30:04;;;;;;;72.53;40.63;;;13.50;99.90;;;;;;5112536;28;20034;-78
2021/10/08 10:32:32;;;;;;;78.40;40.25;;;13.70;99.90;;;;;;5110878;28;20035;-77
2021/10/08 10:34:58;;;;;;;71.70;38.55;;;13.90;99.90;;;;;;5112655;28;20451;-77
2021/10/08 10:37:42;;;;;;;75.22;39.78;;;14.00;99.90;;;;;;5111860;28;20069;-77
2021/10/08 10:40:24;;;;;;;73.57;41.83;;;14.10;99.90;;;;;;5093807;28;20492;-75
2021/10/08 10:43:14;;;;;;;62.40;37.37;;;14.30;99.90;;;;;;5111937;28;20472;-77
2021/10/08 10:46:06;;;;;;;60.75;33.45;;;14.40;99.90;;;;;;5100844;28;20012;-76
2021/10/08 10:48:32;;;;;;;59.33;34.15;;;14.60;99.90;;;;;;5116159;28;20730;-75
2021/10/08 10:51:18;;;;;;;56.55;34.15;;;14.70;99.90;;;;;;5103536;28;20016;-74
2021/10/08 10:53:53;;;;;;;54.70;33.85;;;14.90;99.90;;;;;;5100713;28;20518;-75
2021/10/08 10:56:41;;;;;;;53.67;32.22;;;15.00;99.90;;;;;;5115380;28;20578;-75
2021/10/08 10:59:22;;;;;;;54.90;33.90;;;15.10;99.90;;;;;;5115047;28;20030;-75
2021/10/08 11:02:05;;;;;;;54.20;33.53;;;15.20;99.90;;;;;;5110952;28;20027;-76
2021/10/08 11:04:33;;;;;;;52.13;31.65;;;15.30;99.90;;;;;;5116069;28;20521;-76
2021/10/08 11:07:06;;;;;;;50.90;27.73;;;15.30;99.90;;;;;;5116077;28;20447;-75
2021/10/08 11:09:32;;;;;;;;;;;15.40;99.90;;;;;;5101477;28;20054;-77
2021/10/08 11:12:29;;;;;;;46.25;28.70;;;15.50;99.90;;;;;;5115624;28;19915;-75
2021/10/08 11:15:16;;;;;;;49.22;30.83;;;15.70;99.90;;;;;;5110655;28;20028;-75
2021/10/08 11:18:01;;;;;;;53.45;30.70;;;15.80;99.90;;;;;;5104736;28;20019;-75
2021/10/08 11:20:33;;;;;;;42.00;28.67;;;15.80;99.90;;;;;;5115967;28;20023;-75
2021/10/08 11:23:01;;;;;;;43.22;27.35;;;15.90;99.90;;;;;;5115243;28;20035;-76
2021/10/08 11:25:29;;;;;;;43.75;26.48;;;16.00;99.90;;;;;;5115122;28;20032;-76
2021/10/08 11:27:56;;;;;;;40.38;27.25;;;16.10;99.90;;;;;;5090024;28;20024;-75
2021/10/08 11:30:25;;;;;;;39.20;26.50;;;16.10;99.90;;;;;;5097003;28;20424;-76
2021/10/08 11:32:54;;;;;;;39.83;26.17;;;16.30;99.90;;;;;;5110760;28;20043;-74
2021/10/08 11:35:35;;;;;;;36.72;25.17;;;16.30;99.90;;;;;;5112783;28;20023;-74
2021/10/08 11:38:05;;;;;;;34.28;25.08;;;16.40;99.90;;;;;;5086322;28;20074;-74
2021/10/08 11:40:44;;;;;;;39.28;26.05;;;16.50;99.90;;;;;;5107078;28;20023;-74
2021/10/08 11:43:33;;;;;;;41.97;27.23;;;16.60;99.90;;;;;;5109725;28;20050;-75
2021/10/08 11:46:14;;;;;;;34.88;24.23;;;16.60;99.90;;;;;;5113472;28;20065;-74
2021/10/08 11:51:33;;;;;;;34.28;23.35;;;16.70;99.90;;;;;;5079960;28;20352;-79
2021/10/08 11:54:01;;;;;;;32.50;22.88;;;16.80;99.90;;;;;;5113947;28;20110;-75
2021/10/08 11:56:28;;;;;;;34.70;23.42;;;16.80;99.90;;;;;;5073781;27;20030;-75
2021/10/08 11:59:16;;;;;;;32.72;23.35;;;16.90;99.90;;;;;;5102155;28;20076;-74
2021/10/08 12:01:42;;;;;;;28.80;20.77;;;16.90;99.90;;;;;;5089667;27;20035;-75
2021/10/08 12:04:21;;;;;;;30.27;21.15;;;16.90;99.90;;;;;;5120238;27;20168;-75
2021/10/08 12:06:48;;;;;;;30.73;20.95;;;17.00;99.90;;;;;;5111717;27;20035;-76
2021/10/08 12:09:21;;;;;;;29.33;19.25;;;17.00;99.90;;;;;;5117514;27;20131;-75
2021/10/08 12:11:47;;;;;;;29.73;19.77;;;17.10;99.90;;;;;;5111077;28;20053;-75
2021/10/08 12:14:12;;;;;;;30.23;21.05;;;17.10;99.90;;;;;;5105073;27;20035;-75
2021/10/08 12:16:39;;;;;;;28.08;18.92;;;17.20;99.90;;;;;;5103836;28;20118;-74
2021/10/08 12:19:07;;;;;;;29.55;19.48;;;17.20;99.90;;;;;;5100082;28;20452;-74
2021/10/08 12:21:39;;;;;;;24.95;18.70;;;17.20;99.90;;;;;;5112192;28;20140;-75
2021/10/08 12:24:14;;;;;;;28.83;19.77;;;17.20;99.90;;;;;;5113235;28;20019;-75
2021/10/08 12:26:51;;;;;;;28.95;18.27;;;17.20;99.90;;;;;;5096137;28;20472;-75
2021/10/08 12:29:16;;;;;;;25.58;17.10;;;17.30;99.90;;;;;;5096427;28;20100;-75
2021/10/08 12:31:54;;;;;;;26.02;17.58;;;17.40;99.90;;;;;;5105319;28;20061;-75
2021/10/08 12:34:40;;;;;;;23.73;17.35;;;17.40;99.90;;;;;;5114116;28;20031;-75
2021/10/08 12:37:09;;;;;;;23.63;15.93;;;17.40;99.90;;;;;;5109421;28;20023;-75